sensor_id;sensor_type;location;lat;lon;timestamp;P1;durP1;ratioP1;P2;durP2;ratioP2
7253;SDS011;4060;49.186;9.226;2023-07-31T00:01:25;2.95;;;1.42;;
7253;SDS011;4060;49.186;9.226;2023-07-31T00:03:54;2.88;;;1.20;;
7253;SDS011;4060;49.186;9.226;2023-07-31T00:06:25;3.35;;;1.27;;
7253;SDS011;4060;49.186;9.226;2023-07-31T00:08:54;4.43;;;1.60;;
7253;SDS011;4060;49.186;9.226;2023-07-31T00:11:27;2.80;;;1.38;;
7253;SDS011;4060;49.186;9.226;2023-07-31T00:13:57;4.18;;;1.63;;
7253;SDS011;4060;49.186;9.226;2023-07-31T00:16:28;2.95;;;1.35;;
7253;SDS011;4060;49.186;9.226;2023-07-31T00:18:58;1.83;;;1.20;;
7253;SDS011;4060;49.186;9.226;2023-07-31T00:21:28;5.05;;;1.50;;
7253;SDS011;4060;49.186;9.226;2023-07-31T00:23:57;2.00;;;1.10;;
7253;SDS011;4060;49.186;9.226;2023-07-31T00:26:29;2.85;;;1.35;;
7253;SDS011;4060;49.186;9.226;2023-07-31T00:28:59;3.35;;;1.40;;
7253;SDS011;4060;49.186;9.226;2023-07-31T00:31:28;2.58;;;1.08;;
7253;SDS011;4060;49.186;9.226;2023-07-31T00:33:58;3.85;;;1.17;;
7253;SDS011;4060;49.186;9.226;2023-07-31T00:36:28;1.92;;;1.05;;
7253;SDS011;4060;49.186;9.226;2023-07-31T00:38:57;3.10;;;1.40;;
7253;SDS011;4060;49.186;9.226;2023-07-31T00:41:29;3.05;;;1.42;;
7253;SDS011;4060;49.186;9.226;2023-07-31T00:43:58;2.42;;;1.30;;
7253;SDS011;4060;49.186;9.226;2023-07-31T00:46:28;3.22;;;1.45;;
7253;SDS011;4060;49.186;9.226;2023-07-31T00:48:57;4.13;;;1.60;;
7253;SDS011;4060;49.186;9.226;2023-07-31T00:51:27;5.57;;;1.77;;
7253;SDS011;4060;49.186;9.226;2023-07-31T00:53:57;3.83;;;1.20;;
7253;SDS011;4060;49.186;9.226;2023-07-31T00:56:29;3.42;;;1.33;;
7253;SDS011;4060;49.186;9.226;2023-07-31T00:59:16;2.88;;;1.25;;
7253;SDS011;4060;49.186;9.226;2023-07-31T01:01:46;4.45;;;1.35;;
7253;SDS011;4060;49.186;9.226;2023-07-31T01:04:16;2.67;;;1.52;;
7253;SDS011;4060;49.186;9.226;2023-07-31T01:06:48;2.55;;;1.25;;
7253;SDS011;4060;49.186;9.226;2023-07-31T01:09:24;2.75;;;1.33;;
7253;SDS011;4060;49.186;9.226;2023-07-31T01:12:04;3.17;;;1.35;;
7253;SDS011;4060;49.186;9.226;2023-07-31T01:14:37;4.32;;;1.58;;
7253;SDS011;4060;49.186;9.226;2023-07-31T01:17:07;3.58;;;1.65;;
7253;SDS011;4060;49.186;9.226;2023-07-31T01:19:38;4.53;;;1.60;;
7253;SDS011;4060;49.186;9.226;2023-07-31T01:22:23;1.85;;;1.27;;
7253;SDS011;4060;49.186;9.226;2023-07-31T01:25:17;3.42;;;1.40;;
7253;SDS011;4060;49.186;9.226;2023-07-31T01:27:59;3.38;;;1.30;;
7253;SDS011;4060;49.186;9.226;2023-07-31T01:30:33;3.25;;;1.67;;
7253;SDS011;4060;49.186;9.226;2023-07-31T01:33:06;2.85;;;1.30;;
7253;SDS011;4060;49.186;9.226;2023-07-31T01:35:35;2.33;;;1.42;;
7253;SDS011;4060;49.186;9.226;2023-07-31T01:38:05;2.03;;;1.33;;
7253;SDS011;4060;49.186;9.226;2023-07-31T01:40:35;1.77;;;1.10;;
7253;SDS011;4060;49.186;9.226;2023-07-31T01:43:06;3.58;;;1.25;;
7253;SDS011;4060;49.186;9.226;2023-07-31T01:45:36;2.08;;;1.20;;
7253;SDS011;4060;49.186;9.226;2023-07-31T01:48:06;1.80;;;1.45;;
7253;SDS011;4060;49.186;9.226;2023-07-31T01:50:35;3.28;;;1.45;;
7253;SDS011;4060;49.186;9.226;2023-07-31T01:53:05;5.72;;;1.50;;
7253;SDS011;4060;49.186;9.226;2023-07-31T01:55:34;3.13;;;1.30;;
7253;SDS011;4060;49.186;9.226;2023-07-31T01:58:06;2.83;;;1.42;;
7253;SDS011;4060;49.186;9.226;2023-07-31T02:00:35;3.33;;;1.27;;
7253;SDS011;4060;49.186;9.226;2023-07-31T02:03:05;3.58;;;1.50;;
7253;SDS011;4060;49.186;9.226;2023-07-31T02:05:35;2.33;;;1.20;;
7253;SDS011;4060;49.186;9.226;2023-07-31T02:08:05;3.05;;;1.30;;
7253;SDS011;4060;49.186;9.226;2023-07-31T02:10:35;3.58;;;1.30;;
7253;SDS011;4060;49.186;9.226;2023-07-31T02:13:06;4.20;;;1.45;;
7253;SDS011;4060;49.186;9.226;2023-07-31T02:15:36;4.10;;;1.30;;
7253;SDS011;4060;49.186;9.226;2023-07-31T02:18:06;3.08;;;1.45;;
7253;SDS011;4060;49.186;9.226;2023-07-31T02:20:36;2.30;;;1.25;;
7253;SDS011;4060;49.186;9.226;2023-07-31T02:23:05;3.33;;;1.48;;
7253;SDS011;4060;49.186;9.226;2023-07-31T02:25:35;3.33;;;1.30;;
7253;SDS011;4060;49.186;9.226;2023-07-31T02:28:07;3.08;;;1.52;;
7253;SDS011;4060;49.186;9.226;2023-07-31T02:30:37;2.60;;;1.45;;
7253;SDS011;4060;49.186;9.226;2023-07-31T02:33:07;4.30;;;1.52;;
7253;SDS011;4060;49.186;9.226;2023-07-31T02:35:37;1.88;;;1.52;;
7253;SDS011;4060;49.186;9.226;2023-07-31T02:38:06;2.35;;;1.30;;
7253;SDS011;4060;49.186;9.226;2023-07-31T02:40:36;1.52;;;1.27;;
7253;SDS011;4060;49.186;9.226;2023-07-31T02:43:09;5.10;;;1.48;;
7253;SDS011;4060;49.186;9.226;2023-07-31T02:45:38;2.58;;;1.20;;
7253;SDS011;4060;49.186;9.226;2023-07-31T02:48:08;1.73;;;1.40;;
7253;SDS011;4060;49.186;9.226;2023-07-31T02:50:37;3.20;;;1.55;;
7253;SDS011;4060;49.186;9.226;2023-07-31T02:53:07;2.15;;;1.35;;
7253;SDS011;4060;49.186;9.226;2023-07-31T02:55:36;2.08;;;1.40;;
7253;SDS011;4060;49.186;9.226;2023-07-31T02:58:06;2.25;;;1.30;;
7253;SDS011;4060;49.186;9.226;2023-07-31T03:00:42;2.13;;;1.35;;
7253;SDS011;4060;49.186;9.226;2023-07-31T03:03:12;3.50;;;1.40;;
7253;SDS011;4060;49.186;9.226;2023-07-31T03:05:41;2.13;;;1.50;;
7253;SDS011;4060;49.186;9.226;2023-07-31T03:08:11;3.90;;;1.60;;
7253;SDS011;4060;49.186;9.226;2023-07-31T03:10:40;3.58;;;1.60;;
7253;SDS011;4060;49.186;9.226;2023-07-31T03:13:12;1.95;;;1.42;;
7253;SDS011;4060;49.186;9.226;2023-07-31T03:15:42;1.52;;;1.30;;
7253;SDS011;4060;49.186;9.226;2023-07-31T03:18:12;1.70;;;1.35;;
7253;SDS011;4060;49.186;9.226;2023-07-31T03:20:42;3.22;;;1.40;;
7253;SDS011;4060;49.186;9.226;2023-07-31T03:23:11;2.95;;;1.63;;
7253;SDS011;4060;49.186;9.226;2023-07-31T03:25:41;3.80;;;1.55;;
7253;SDS011;4060;49.186;9.226;2023-07-31T03:28:26;2.15;;;1.25;;
7253;SDS011;4060;49.186;9.226;2023-07-31T03:30:55;2.58;;;1.48;;
7253;SDS011;4060;49.186;9.226;2023-07-31T03:33:27;3.70;;;1.42;;
7253;SDS011;4060;49.186;9.226;2023-07-31T03:35:57;2.22;;;1.50;;
7253;SDS011;4060;49.186;9.226;2023-07-31T03:38:26;3.85;;;1.65;;
7253;SDS011;4060;49.186;9.226;2023-07-31T03:40:56;1.95;;;1.45;;
7253;SDS011;4060;49.186;9.226;2023-07-31T03:43:28;2.75;;;1.50;;
7253;SDS011;4060;49.186;9.226;2023-07-31T03:45:57;2.08;;;1.45;;
7253;SDS011;4060;49.186;9.226;2023-07-31T03:48:27;3.10;;;1.35;;
7253;SDS011;4060;49.186;9.226;2023-07-31T03:50:56;3.50;;;1.63;;
7253;SDS011;4060;49.186;9.226;2023-07-31T03:53:26;2.85;;;1.27;;
7253;SDS011;4060;49.186;9.226;2023-07-31T03:55:56;2.42;;;1.33;;
7253;SDS011;4060;49.186;9.226;2023-07-31T03:58:27;3.50;;;1.75;;
7253;SDS011;4060;49.186;9.226;2023-07-31T04:00:57;3.55;;;1.80;;
7253;SDS011;4060;49.186;9.226;2023-07-31T04:03:27;2.30;;;1.38;;
7253;SDS011;4060;49.186;9.226;2023-07-31T04:05:56;3.70;;;1.52;;
7253;SDS011;4060;49.186;9.226;2023-07-31T04:08:26;2.10;;;1.25;;
7253;SDS011;4060;49.186;9.226;2023-07-31T04:10:56;4.05;;;1.77;;
7253;SDS011;4060;49.186;9.226;2023-07-31T04:13:28;3.58;;;1.50;;
7253;SDS011;4060;49.186;9.226;2023-07-31T04:15:58;1.83;;;1.40;;
7253;SDS011;4060;49.186;9.226;2023-07-31T04:18:28;2.17;;;1.30;;
7253;SDS011;4060;49.186;9.226;2023-07-31T04:20:58;5.03;;;1.75;;
7253;SDS011;4060;49.186;9.226;2023-07-31T04:23:29;3.53;;;1.45;;
7253;SDS011;4060;49.186;9.226;2023-07-31T04:25:59;3.63;;;1.73;;
7253;SDS011;4060;49.186;9.226;2023-07-31T04:28:31;1.90;;;1.60;;
7253;SDS011;4060;49.186;9.226;2023-07-31T04:31:00;1.85;;;1.60;;
7253;SDS011;4060;49.186;9.226;2023-07-31T04:33:30;3.75;;;1.83;;
7253;SDS011;4060;49.186;9.226;2023-07-31T04:35:59;1.77;;;1.38;;
7253;SDS011;4060;49.186;9.226;2023-07-31T04:38:28;3.03;;;1.73;;
7253;SDS011;4060;49.186;9.226;2023-07-31T04:40:58;3.35;;;1.80;;
7253;SDS011;4060;49.186;9.226;2023-07-31T04:43:27;2.63;;;1.40;;
7253;SDS011;4060;49.186;9.226;2023-07-31T04:45:59;3.53;;;1.20;;
7253;SDS011;4060;49.186;9.226;2023-07-31T04:48:28;1.95;;;1.50;;
7253;SDS011;4060;49.186;9.226;2023-07-31T04:50:58;5.22;;;1.73;;
7253;SDS011;4060;49.186;9.226;2023-07-31T04:53:28;1.67;;;1.40;;
7253;SDS011;4060;49.186;9.226;2023-07-31T04:55:57;2.50;;;1.73;;
7253;SDS011;4060;49.186;9.226;2023-07-31T04:58:27;3.60;;;1.83;;
7253;SDS011;4060;49.186;9.226;2023-07-31T05:00:58;3.70;;;1.60;;
7253;SDS011;4060;49.186;9.226;2023-07-31T05:03:28;2.55;;;1.83;;
7253;SDS011;4060;49.186;9.226;2023-07-31T05:05:57;2.05;;;1.73;;
7253;SDS011;4060;49.186;9.226;2023-07-31T05:08:27;2.08;;;1.42;;
7253;SDS011;4060;49.186;9.226;2023-07-31T05:10:56;4.15;;;1.77;;
7253;SDS011;4060;49.186;9.226;2023-07-31T05:13:25;2.83;;;1.65;;
7253;SDS011;4060;49.186;9.226;2023-07-31T05:15:57;3.08;;;1.70;;
7253;SDS011;4060;49.186;9.226;2023-07-31T05:18:27;3.03;;;1.50;;
7253;SDS011;4060;49.186;9.226;2023-07-31T05:20:57;2.83;;;1.40;;
7253;SDS011;4060;49.186;9.226;2023-07-31T05:23:27;2.65;;;1.40;;
7253;SDS011;4060;49.186;9.226;2023-07-31T05:26:03;3.40;;;1.73;;
7253;SDS011;4060;49.186;9.226;2023-07-31T05:28:34;2.20;;;1.67;;
7253;SDS011;4060;49.186;9.226;2023-07-31T05:31:05;2.88;;;1.77;;
7253;SDS011;4060;49.186;9.226;2023-07-31T05:33:36;3.92;;;1.63;;
7253;SDS011;4060;49.186;9.226;2023-07-31T05:36:05;3.75;;;1.73;;
7253;SDS011;4060;49.186;9.226;2023-07-31T05:38:35;2.42;;;1.60;;
7253;SDS011;4060;49.186;9.226;2023-07-31T05:41:04;2.38;;;1.55;;
7253;SDS011;4060;49.186;9.226;2023-07-31T05:43:33;3.10;;;1.60;;
7253;SDS011;4060;49.186;9.226;2023-07-31T05:46:02;3.00;;;2.17;;
7253;SDS011;4060;49.186;9.226;2023-07-31T05:48:34;4.60;;;1.95;;
7253;SDS011;4060;49.186;9.226;2023-07-31T05:51:03;5.20;;;1.73;;
7253;SDS011;4060;49.186;9.226;2023-07-31T05:53:33;2.42;;;1.75;;
7253;SDS011;4060;49.186;9.226;2023-07-31T05:56:07;5.03;;;1.65;;
7253;SDS011;4060;49.186;9.226;2023-07-31T05:58:36;2.88;;;1.50;;
7253;SDS011;4060;49.186;9.226;2023-07-31T06:01:05;3.47;;;1.60;;
7253;SDS011;4060;49.186;9.226;2023-07-31T06:03:36;4.05;;;1.63;;
7253;SDS011;4060;49.186;9.226;2023-07-31T06:06:06;3.25;;;1.80;;
7253;SDS011;4060;49.186;9.226;2023-07-31T06:08:35;3.67;;;1.95;;
7253;SDS011;4060;49.186;9.226;2023-07-31T06:11:06;2.47;;;1.65;;
7253;SDS011;4060;49.186;9.226;2023-07-31T06:13:36;4.00;;;1.75;;
7253;SDS011;4060;49.186;9.226;2023-07-31T06:16:05;2.20;;;1.42;;
7253;SDS011;4060;49.186;9.226;2023-07-31T06:18:39;3.25;;;1.85;;
7253;SDS011;4060;49.186;9.226;2023-07-31T06:21:09;2.75;;;1.85;;
7253;SDS011;4060;49.186;9.226;2023-07-31T06:23:39;2.28;;;1.70;;
7253;SDS011;4060;49.186;9.226;2023-07-31T06:26:08;4.90;;;1.90;;
7253;SDS011;4060;49.186;9.226;2023-07-31T06:28:37;3.05;;;1.50;;
7253;SDS011;4060;49.186;9.226;2023-07-31T06:31:07;4.43;;;1.98;;
7253;SDS011;4060;49.186;9.226;2023-07-31T06:33:36;1.88;;;1.63;;
7253;SDS011;4060;49.186;9.226;2023-07-31T06:36:08;3.00;;;1.63;;
7253;SDS011;4060;49.186;9.226;2023-07-31T06:38:37;3.45;;;1.73;;
7253;SDS011;4060;49.186;9.226;2023-07-31T06:41:07;4.00;;;1.90;;
7253;SDS011;4060;49.186;9.226;2023-07-31T06:43:36;4.10;;;2.17;;
7253;SDS011;4060;49.186;9.226;2023-07-31T06:46:06;3.70;;;2.17;;
7253;SDS011;4060;49.186;9.226;2023-07-31T06:48:36;3.97;;;1.90;;
7253;SDS011;4060;49.186;9.226;2023-07-31T06:51:07;4.25;;;1.67;;
7253;SDS011;4060;49.186;9.226;2023-07-31T06:53:36;3.67;;;1.90;;
7253;SDS011;4060;49.186;9.226;2023-07-31T06:56:06;3.05;;;1.98;;
7253;SDS011;4060;49.186;9.226;2023-07-31T06:58:35;3.33;;;1.90;;
7253;SDS011;4060;49.186;9.226;2023-07-31T07:01:04;4.80;;;2.30;;
7253;SDS011;4060;49.186;9.226;2023-07-31T07:03:34;3.35;;;2.10;;
7253;SDS011;4060;49.186;9.226;2023-07-31T07:06:03;3.28;;;2.15;;
7253;SDS011;4060;49.186;9.226;2023-07-31T07:08:35;2.38;;;1.95;;
7253;SDS011;4060;49.186;9.226;2023-07-31T07:11:04;4.10;;;2.03;;
7253;SDS011;4060;49.186;9.226;2023-07-31T07:13:34;3.70;;;1.88;;
7253;SDS011;4060;49.186;9.226;2023-07-31T07:16:03;4.95;;;2.15;;
7253;SDS011;4060;49.186;9.226;2023-07-31T07:18:32;2.90;;;2.38;;
7253;SDS011;4060;49.186;9.226;2023-07-31T07:21:02;4.53;;;2.25;;
7253;SDS011;4060;49.186;9.226;2023-07-31T07:23:31;5.28;;;2.75;;
7253;SDS011;4060;49.186;9.226;2023-07-31T07:26:03;3.78;;;2.38;;
7253;SDS011;4060;49.186;9.226;2023-07-31T07:28:32;4.88;;;2.25;;
7253;SDS011;4060;49.186;9.226;2023-07-31T07:31:03;5.82;;;2.20;;
7253;SDS011;4060;49.186;9.226;2023-07-31T07:33:32;4.47;;;2.30;;
7253;SDS011;4060;49.186;9.226;2023-07-31T07:36:02;3.20;;;2.17;;
7253;SDS011;4060;49.186;9.226;2023-07-31T07:38:36;4.57;;;2.05;;
7253;SDS011;4060;49.186;9.226;2023-07-31T07:41:07;5.47;;;2.42;;
7253;SDS011;4060;49.186;9.226;2023-07-31T07:43:37;4.38;;;1.85;;
7253;SDS011;4060;49.186;9.226;2023-07-31T07:46:06;3.65;;;2.10;;
7253;SDS011;4060;49.186;9.226;2023-07-31T07:48:35;4.22;;;2.50;;
7253;SDS011;4060;49.186;9.226;2023-07-31T07:51:05;4.07;;;2.50;;
7253;SDS011;4060;49.186;9.226;2023-07-31T07:53:35;4.65;;;2.20;;
7253;SDS011;4060;49.186;9.226;2023-07-31T07:56:04;6.55;;;2.33;;
7253;SDS011;4060;49.186;9.226;2023-07-31T07:58:35;2.47;;;2.00;;
7253;SDS011;4060;49.186;9.226;2023-07-31T08:01:04;3.58;;;1.98;;
7253;SDS011;4060;49.186;9.226;2023-07-31T08:03:34;5.70;;;2.28;;
7253;SDS011;4060;49.186;9.226;2023-07-31T08:06:03;3.83;;;2.15;;
7253;SDS011;4060;49.186;9.226;2023-07-31T08:08:34;5.65;;;2.35;;
7253;SDS011;4060;49.186;9.226;2023-07-31T08:11:04;2.65;;;1.80;;
7253;SDS011;4060;49.186;9.226;2023-07-31T08:13:35;4.38;;;2.25;;
7253;SDS011;4060;49.186;9.226;2023-07-31T08:16:04;4.85;;;2.10;;
7253;SDS011;4060;49.186;9.226;2023-07-31T08:18:34;3.55;;;2.10;;
7253;SDS011;4060;49.186;9.226;2023-07-31T08:21:06;3.33;;;2.05;;
7253;SDS011;4060;49.186;9.226;2023-07-31T08:23:35;4.00;;;2.20;;
7253;SDS011;4060;49.186;9.226;2023-07-31T08:26:04;3.03;;;2.22;;
7253;SDS011;4060;49.186;9.226;2023-07-31T08:28:37;3.42;;;2.10;;
7253;SDS011;4060;49.186;9.226;2023-07-31T08:31:07;5.50;;;2.30;;
7253;SDS011;4060;49.186;9.226;2023-07-31T08:33:37;4.35;;;1.85;;
7253;SDS011;4060;49.186;9.226;2023-07-31T08:36:07;2.70;;;2.15;;
7253;SDS011;4060;49.186;9.226;2023-07-31T08:38:36;4.65;;;2.28;;
7253;SDS011;4060;49.186;9.226;2023-07-31T08:41:06;5.40;;;1.88;;
7253;SDS011;4060;49.186;9.226;2023-07-31T08:43:39;5.60;;;2.10;;
7253;SDS011;4060;49.186;9.226;2023-07-31T08:46:09;4.25;;;1.90;;
7253;SDS011;4060;49.186;9.226;2023-07-31T08:48:41;6.32;;;2.78;;
7253;SDS011;4060;49.186;9.226;2023-07-31T08:51:13;5.07;;;2.15;;
7253;SDS011;4060;49.186;9.226;2023-07-31T08:53:42;4.05;;;2.25;;
7253;SDS011;4060;49.186;9.226;2023-07-31T08:56:12;6.65;;;2.30;;
7253;SDS011;4060;49.186;9.226;2023-07-31T08:58:45;4.22;;;2.15;;
7253;SDS011;4060;49.186;9.226;2023-07-31T09:01:15;5.38;;;2.25;;
7253;SDS011;4060;49.186;9.226;2023-07-31T09:03:46;4.15;;;1.85;;
7253;SDS011;4060;49.186;9.226;2023-07-31T09:06:17;4.05;;;2.15;;
7253;SDS011;4060;49.186;9.226;2023-07-31T09:08:48;4.65;;;2.10;;
7253;SDS011;4060;49.186;9.226;2023-07-31T09:11:18;4.05;;;2.30;;
7253;SDS011;4060;49.186;9.226;2023-07-31T09:13:53;5.53;;;1.77;;
7253;SDS011;4060;49.186;9.226;2023-07-31T09:16:28;8.48;;;2.38;;
7253;SDS011;4060;49.186;9.226;2023-07-31T09:18:58;3.97;;;2.47;;
7253;SDS011;4060;49.186;9.226;2023-07-31T09:21:29;4.22;;;2.15;;
7253;SDS011;4060;49.186;9.226;2023-07-31T09:23:59;5.13;;;2.30;;
7253;SDS011;4060;49.186;9.226;2023-07-31T09:26:32;3.15;;;2.25;;
7253;SDS011;4060;49.186;9.226;2023-07-31T09:29:06;6.57;;;2.22;;
7253;SDS011;4060;49.186;9.226;2023-07-31T09:31:47;3.45;;;2.10;;
7253;SDS011;4060;49.186;9.226;2023-07-31T09:34:16;5.50;;;2.47;;
7253;SDS011;4060;49.186;9.226;2023-07-31T09:36:46;2.63;;;2.03;;
7253;SDS011;4060;49.186;9.226;2023-07-31T09:39:19;4.30;;;2.15;;
7253;SDS011;4060;49.186;9.226;2023-07-31T09:41:54;5.57;;;2.72;;
7253;SDS011;4060;49.186;9.226;2023-07-31T09:47:21;5.30;;;2.03;;
7253;SDS011;4060;49.186;9.226;2023-07-31T09:49:51;4.80;;;2.55;;
7253;SDS011;4060;49.186;9.226;2023-07-31T09:52:20;5.28;;;2.55;;
7253;SDS011;4060;49.186;9.226;2023-07-31T09:54:50;3.85;;;2.35;;
7253;SDS011;4060;49.186;9.226;2023-07-31T09:57:19;5.93;;;2.33;;
7253;SDS011;4060;49.186;9.226;2023-07-31T09:59:53;3.85;;;2.75;;
7253;SDS011;4060;49.186;9.226;2023-07-31T10:02:23;3.42;;;2.30;;
7253;SDS011;4060;49.186;9.226;2023-07-31T10:04:55;4.75;;;2.50;;
7253;SDS011;4060;49.186;9.226;2023-07-31T10:07:28;4.10;;;2.55;;
7253;SDS011;4060;49.186;9.226;2023-07-31T10:09:59;4.00;;;2.25;;
7253;SDS011;4060;49.186;9.226;2023-07-31T10:12:30;4.55;;;2.58;;
7253;SDS011;4060;49.186;9.226;2023-07-31T10:15:04;5.50;;;2.60;;
7253;SDS011;4060;49.186;9.226;2023-07-31T10:17:34;6.50;;;2.83;;
7253;SDS011;4060;49.186;9.226;2023-07-31T10:20:05;3.55;;;2.50;;
7253;SDS011;4060;49.186;9.226;2023-07-31T10:22:36;4.38;;;2.60;;
7253;SDS011;4060;49.186;9.226;2023-07-31T10:25:06;4.45;;;2.28;;
7253;SDS011;4060;49.186;9.226;2023-07-31T10:27:36;4.28;;;2.10;;
7253;SDS011;4060;49.186;9.226;2023-07-31T10:30:10;4.25;;;2.35;;
7253;SDS011;4060;49.186;9.226;2023-07-31T10:32:43;7.18;;;2.90;;
7253;SDS011;4060;49.186;9.226;2023-07-31T10:35:13;4.32;;;2.45;;
7253;SDS011;4060;49.186;9.226;2023-07-31T10:37:43;3.67;;;2.28;;
7253;SDS011;4060;49.186;9.226;2023-07-31T10:40:13;5.38;;;2.63;;
7253;SDS011;4060;49.186;9.226;2023-07-31T10:42:47;4.15;;;2.38;;
7253;SDS011;4060;49.186;9.226;2023-07-31T10:45:30;6.30;;;2.53;;
7253;SDS011;4060;49.186;9.226;2023-07-31T10:48:03;4.82;;;2.42;;
7253;SDS011;4060;49.186;9.226;2023-07-31T10:50:36;5.60;;;2.58;;
7253;SDS011;4060;49.186;9.226;2023-07-31T10:53:06;3.63;;;2.60;;
7253;SDS011;4060;49.186;9.226;2023-07-31T10:55:52;5.93;;;2.53;;
7253;SDS011;4060;49.186;9.226;2023-07-31T10:58:26;3.65;;;2.47;;
7253;SDS011;4060;49.186;9.226;2023-07-31T11:00:59;5.28;;;2.30;;
7253;SDS011;4060;49.186;9.226;2023-07-31T11:06:15;5.72;;;2.90;;
7253;SDS011;4060;49.186;9.226;2023-07-31T11:08:45;4.60;;;2.38;;
7253;SDS011;4060;49.186;9.226;2023-07-31T11:11:16;5.13;;;2.45;;
7253;SDS011;4060;49.186;9.226;2023-07-31T11:13:46;4.20;;;2.50;;
7253;SDS011;4060;49.186;9.226;2023-07-31T11:16:18;5.57;;;2.75;;
7253;SDS011;4060;49.186;9.226;2023-07-31T11:18:48;4.95;;;3.00;;
7253;SDS011;4060;49.186;9.226;2023-07-31T11:21:18;6.18;;;2.65;;
7253;SDS011;4060;49.186;9.226;2023-07-31T11:23:49;8.38;;;2.75;;
7253;SDS011;4060;49.186;9.226;2023-07-31T11:26:20;5.43;;;2.67;;
7253;SDS011;4060;49.186;9.226;2023-07-31T11:28:52;3.88;;;2.17;;
7253;SDS011;4060;49.186;9.226;2023-07-31T11:31:24;5.88;;;3.03;;
7253;SDS011;4060;49.186;9.226;2023-07-31T11:34:05;3.80;;;2.20;;
7253;SDS011;4060;49.186;9.226;2023-07-31T11:36:38;4.53;;;2.30;;
7253;SDS011;4060;49.186;9.226;2023-07-31T11:39:08;5.88;;;2.50;;
7253;SDS011;4060;49.186;9.226;2023-07-31T11:41:40;5.80;;;2.45;;
7253;SDS011;4060;49.186;9.226;2023-07-31T11:44:10;5.32;;;2.92;;
7253;SDS011;4060;49.186;9.226;2023-07-31T11:46:41;6.28;;;2.88;;
7253;SDS011;4060;49.186;9.226;2023-07-31T11:49:11;4.63;;;2.83;;
7253;SDS011;4060;49.186;9.226;2023-07-31T11:51:41;3.55;;;2.33;;
7253;SDS011;4060;49.186;9.226;2023-07-31T11:54:10;4.53;;;2.33;;
7253;SDS011;4060;49.186;9.226;2023-07-31T11:56:40;5.13;;;2.55;;
7253;SDS011;4060;49.186;9.226;2023-07-31T11:59:09;4.75;;;2.50;;
7253;SDS011;4060;49.186;9.226;2023-07-31T12:01:39;6.70;;;2.25;;
7253;SDS011;4060;49.186;9.226;2023-07-31T12:04:11;2.95;;;2.35;;
7253;SDS011;4060;49.186;9.226;2023-07-31T12:06:40;3.67;;;2.58;;
7253;SDS011;4060;49.186;9.226;2023-07-31T12:09:12;3.88;;;2.33;;
7253;SDS011;4060;49.186;9.226;2023-07-31T12:11:43;6.40;;;2.97;;
7253;SDS011;4060;49.186;9.226;2023-07-31T12:14:24;4.13;;;2.15;;
7253;SDS011;4060;49.186;9.226;2023-07-31T12:16:59;5.32;;;2.42;;
7253;SDS011;4060;49.186;9.226;2023-07-31T12:19:33;3.47;;;2.30;;
7253;SDS011;4060;49.186;9.226;2023-07-31T12:22:02;4.65;;;2.45;;
7253;SDS011;4060;49.186;9.226;2023-07-31T12:24:40;3.15;;;2.28;;
7253;SDS011;4060;49.186;9.226;2023-07-31T12:27:10;2.75;;;2.17;;
7253;SDS011;4060;49.186;9.226;2023-07-31T12:29:41;6.07;;;2.42;;
7253;SDS011;4060;49.186;9.226;2023-07-31T12:35:00;5.63;;;2.50;;
7253;SDS011;4060;49.186;9.226;2023-07-31T12:37:34;4.47;;;2.38;;
7253;SDS011;4060;49.186;9.226;2023-07-31T12:40:04;4.03;;;2.28;;
7253;SDS011;4060;49.186;9.226;2023-07-31T12:42:34;5.15;;;2.47;;
7253;SDS011;4060;49.186;9.226;2023-07-31T12:45:03;4.20;;;2.17;;
7253;SDS011;4060;49.186;9.226;2023-07-31T12:47:35;5.93;;;2.55;;
7253;SDS011;4060;49.186;9.226;2023-07-31T12:50:04;5.00;;;2.47;;
7253;SDS011;4060;49.186;9.226;2023-07-31T12:52:34;3.80;;;2.58;;
7253;SDS011;4060;49.186;9.226;2023-07-31T12:55:04;4.43;;;2.10;;
7253;SDS011;4060;49.186;9.226;2023-07-31T12:57:33;3.60;;;2.13;;
7253;SDS011;4060;49.186;9.226;2023-07-31T13:00:03;3.15;;;2.28;;
7253;SDS011;4060;49.186;9.226;2023-07-31T13:02:34;4.25;;;2.40;;
7253;SDS011;4060;49.186;9.226;2023-07-31T13:05:04;2.88;;;2.35;;
7253;SDS011;4060;49.186;9.226;2023-07-31T13:07:33;3.60;;;2.28;;
7253;SDS011;4060;49.186;9.226;2023-07-31T13:10:02;4.20;;;2.30;;
7253;SDS011;4060;49.186;9.226;2023-07-31T13:12:32;4.90;;;2.55;;
7253;SDS011;4060;49.186;9.226;2023-07-31T13:15:02;3.22;;;2.15;;
7253;SDS011;4060;49.186;9.226;2023-07-31T13:17:31;6.05;;;2.78;;
7253;SDS011;4060;49.186;9.226;2023-07-31T13:20:03;4.18;;;2.60;;
7253;SDS011;4060;49.186;9.226;2023-07-31T13:22:34;4.82;;;2.22;;
7253;SDS011;4060;49.186;9.226;2023-07-31T13:25:03;4.70;;;2.47;;
7253;SDS011;4060;49.186;9.226;2023-07-31T13:27:34;5.00;;;2.50;;
7253;SDS011;4060;49.186;9.226;2023-07-31T13:30:03;4.25;;;2.17;;
7253;SDS011;4060;49.186;9.226;2023-07-31T13:32:34;5.72;;;2.80;;
7253;SDS011;4060;49.186;9.226;2023-07-31T13:35:05;3.80;;;2.25;;
7253;SDS011;4060;49.186;9.226;2023-07-31T13:37:35;3.50;;;2.65;;
7253;SDS011;4060;49.186;9.226;2023-07-31T13:40:05;5.45;;;2.60;;
7253;SDS011;4060;49.186;9.226;2023-07-31T13:42:35;3.95;;;2.40;;
7253;SDS011;4060;49.186;9.226;2023-07-31T13:45:05;5.10;;;2.10;;
7253;SDS011;4060;49.186;9.226;2023-07-31T13:47:36;3.60;;;2.20;;
7253;SDS011;4060;49.186;9.226;2023-07-31T13:50:06;4.75;;;2.38;;
7253;SDS011;4060;49.186;9.226;2023-07-31T13:52:35;4.47;;;2.40;;
7253;SDS011;4060;49.186;9.226;2023-07-31T13:55:05;4.30;;;2.42;;
7253;SDS011;4060;49.186;9.226;2023-07-31T13:57:34;2.83;;;2.05;;
7253;SDS011;4060;49.186;9.226;2023-07-31T14:00:04;4.65;;;2.17;;
7253;SDS011;4060;49.186;9.226;2023-07-31T14:02:36;3.30;;;2.40;;
7253;SDS011;4060;49.186;9.226;2023-07-31T14:05:05;9.85;;;2.78;;
7253;SDS011;4060;49.186;9.226;2023-07-31T14:07:35;3.55;;;2.20;;
7253;SDS011;4060;49.186;9.226;2023-07-31T14:10:05;4.75;;;2.15;;
7253;SDS011;4060;49.186;9.226;2023-07-31T14:12:34;3.67;;;2.30;;
7253;SDS011;4060;49.186;9.226;2023-07-31T14:15:04;4.85;;;1.95;;
7253;SDS011;4060;49.186;9.226;2023-07-31T14:17:34;2.95;;;2.38;;
7253;SDS011;4060;49.186;9.226;2023-07-31T14:20:05;3.03;;;1.98;;
7253;SDS011;4060;49.186;9.226;2023-07-31T14:22:36;4.90;;;1.88;;
7253;SDS011;4060;49.186;9.226;2023-07-31T14:25:05;2.78;;;2.00;;
7253;SDS011;4060;49.186;9.226;2023-07-31T14:27:36;4.18;;;2.47;;
7253;SDS011;4060;49.186;9.226;2023-07-31T14:30:06;5.85;;;2.00;;
7253;SDS011;4060;49.186;9.226;2023-07-31T14:32:39;3.22;;;2.03;;
7253;SDS011;4060;49.186;9.226;2023-07-31T14:35:08;2.65;;;2.22;;
7253;SDS011;4060;49.186;9.226;2023-07-31T14:37:38;3.67;;;2.00;;
7253;SDS011;4060;49.186;9.226;2023-07-31T14:40:08;3.70;;;2.35;;
7253;SDS011;4060;49.186;9.226;2023-07-31T14:42:39;3.72;;;2.45;;
7253;SDS011;4060;49.186;9.226;2023-07-31T14:45:09;4.15;;;2.60;;
7253;SDS011;4060;49.186;9.226;2023-07-31T14:47:40;3.53;;;2.08;;
7253;SDS011;4060;49.186;9.226;2023-07-31T14:50:10;5.05;;;2.08;;
7253;SDS011;4060;49.186;9.226;2023-07-31T14:52:39;2.53;;;1.80;;
7253;SDS011;4060;49.186;9.226;2023-07-31T14:55:08;3.70;;;2.00;;
7253;SDS011;4060;49.186;9.226;2023-07-31T14:57:38;4.38;;;2.05;;
7253;SDS011;4060;49.186;9.226;2023-07-31T15:00:07;3.97;;;2.38;;
7253;SDS011;4060;49.186;9.226;2023-07-31T15:02:37;4.38;;;2.33;;
7253;SDS011;4060;49.186;9.226;2023-07-31T15:05:09;3.03;;;2.03;;
7253;SDS011;4060;49.186;9.226;2023-07-31T15:07:38;4.45;;;2.25;;
7253;SDS011;4060;49.186;9.226;2023-07-31T15:10:07;4.85;;;2.38;;
7253;SDS011;4060;49.186;9.226;2023-07-31T15:12:37;3.42;;;2.28;;
7253;SDS011;4060;49.186;9.226;2023-07-31T15:15:08;3.08;;;2.05;;
7253;SDS011;4060;49.186;9.226;2023-07-31T15:17:37;3.85;;;2.05;;
7253;SDS011;4060;49.186;9.226;2023-07-31T15:20:09;3.50;;;2.35;;
7253;SDS011;4060;49.186;9.226;2023-07-31T15:22:39;7.82;;;2.28;;
7253;SDS011;4060;49.186;9.226;2023-07-31T15:25:10;4.40;;;2.40;;
7253;SDS011;4060;49.186;9.226;2023-07-31T15:27:40;3.40;;;2.50;;
7253;SDS011;4060;49.186;9.226;2023-07-31T15:30:09;4.22;;;2.25;;
7253;SDS011;4060;49.186;9.226;2023-07-31T15:32:40;4.18;;;2.47;;
7253;SDS011;4060;49.186;9.226;2023-07-31T15:35:14;3.35;;;2.10;;
7253;SDS011;4060;49.186;9.226;2023-07-31T15:37:43;4.32;;;2.10;;
7253;SDS011;4060;49.186;9.226;2023-07-31T15:40:13;6.57;;;2.67;;
7253;SDS011;4060;49.186;9.226;2023-07-31T15:42:42;4.97;;;2.70;;
7253;SDS011;4060;49.186;9.226;2023-07-31T15:45:12;4.28;;;2.40;;